createdAt,value
2023-02-04T00:00:26.548Z,10.50
2023-02-04T00:01:18.005Z,11.14
2023-02-04T00:02:09.691Z,11.96
2023-02-04T00:03:01.189Z,11.75
2023-02-04T00:03:53.011Z,11.25
2023-02-04T00:04:44.420Z,9.49
2023-02-04T00:05:35.989Z,9.65
2023-02-04T00:06:27.670Z,9.26
2023-02-04T00:07:19.317Z,9.19
2023-02-04T00:08:11.030Z,9.17
2023-02-04T00:09:02.471Z,9.92
2023-02-04T00:09:53.975Z,10.10
2023-02-04T00:10:45.477Z,9.20
2023-02-04T00:11:36.984Z,8.89
2023-02-04T00:12:28.492Z,10.96
2023-02-04T00:13:19.935Z,11.03
2023-02-04T00:14:11.452Z,10.62
2023-02-04T00:15:03.036Z,11.05
2023-02-04T00:15:54.548Z,11.36
2023-02-04T00:16:46.199Z,10.89
2023-02-04T00:17:38.051Z,10.86
2023-02-04T00:18:29.665Z,10.59
2023-02-04T00:19:21.101Z,9.37
2023-02-04T00:20:13.388Z,8.69
2023-02-04T00:21:05.339Z,10.50
2023-02-04T00:21:56.945Z,9.36
2023-02-04T00:22:48.732Z,9.16
2023-02-04T00:23:40.844Z,9.61
2023-02-04T00:24:32.463Z,10.37
2023-02-04T00:25:24.088Z,9.97
2023-02-04T00:26:15.561Z,11.71
2023-02-04T00:27:07.469Z,11.23
2023-02-04T00:27:58.977Z,10.96
2023-02-04T00:28:50.616Z,10.67
2023-02-04T00:29:42.486Z,10.96
2023-02-04T00:30:33.929Z,10.92
2023-02-04T00:31:25.805Z,10.15
2023-02-04T00:32:17.495Z,9.91
2023-02-04T00:33:09.299Z,9.30
2023-02-04T00:34:00.845Z,9.98
2023-02-04T00:34:53.694Z,10.50
2023-02-04T00:35:45.342Z,10.82
2023-02-04T00:36:38.633Z,9.77
2023-02-04T00:37:32.248Z,10.15
2023-02-04T00:38:23.757Z,11.73
2023-02-04T00:39:15.359Z,10.51
2023-02-04T00:40:07.929Z,10.89
2023-02-04T00:40:59.361Z,10.02
2023-02-04T00:41:50.981Z,10.27
2023-02-04T00:42:43.050Z,10.26
2023-02-04T00:43:34.527Z,10.22
2023-02-04T00:44:26.224Z,10.15
2023-02-04T00:45:17.735Z,10.20
2023-02-04T00:46:09.601Z,9.04
2023-02-04T00:47:02.463Z,10.52
2023-02-04T00:47:54.605Z,11.78
2023-02-04T00:48:46.071Z,10.93
2023-02-04T00:49:37.509Z,10.48
2023-02-04T00:50:29.294Z,12.07
2023-02-04T00:51:21.244Z,11.42
2023-02-04T00:52:13.604Z,10.59
2023-02-04T00:53:07.616Z,11.57
2023-02-04T00:53:59.372Z,12.40
2023-02-04T00:54:50.812Z,12.38
2023-02-04T00:55:42.268Z,11.33
2023-02-04T00:56:34.582Z,11.63
2023-02-04T00:57:26.072Z,12.19
2023-02-04T00:58:17.507Z,11.76
2023-02-04T00:59:09.084Z,11.45
2023-02-04T01:00:00.841Z,11.26
2023-02-04T01:00:52.499Z,11.14
2023-02-04T01:01:44.386Z,9.98
2023-02-04T01:02:36.164Z,9.93
2023-02-04T01:03:28.339Z,11.08
2023-02-04T01:04:21.212Z,11.23
2023-02-04T01:05:12.787Z,10.23
2023-02-04T01:06:04.384Z,10.29
2023-02-04T01:06:55.917Z,9.05
2023-02-04T01:07:47.525Z,8.90
2023-02-04T01:08:39.586Z,9.35
2023-02-04T01:09:31.070Z,11.29
2023-02-04T01:10:22.671Z,10.47
2023-02-04T01:11:14.670Z,10.60
2023-02-04T01:12:06.379Z,10.36
2023-02-04T01:12:58.430Z,11.33
2023-02-04T01:13:49.962Z,9.94
2023-02-04T01:14:41.608Z,10.39
2023-02-04T01:15:33.605Z,10.44
2023-02-04T01:16:26.279Z,10.51
2023-02-04T01:17:19.366Z,10.19
2023-02-04T01:18:12.570Z,10.30
2023-02-04T01:19:04.252Z,10.31
2023-02-04T01:19:55.701Z,9.53
2023-02-04T01:20:47.275Z,9.34
2023-02-04T01:21:41.788Z,10.10
2023-02-04T01:22:35.155Z,10.29
2023-02-04T01:23:26.620Z,10.28
2023-02-04T01:24:18.238Z,10.51
2023-02-04T01:25:28.550Z,9.68
2023-02-04T01:26:20.355Z,9.52
2023-02-04T01:27:11.930Z,9.73
2023-02-04T01:28:03.902Z,10.37
2023-02-04T01:28:56.101Z,9.79
2023-02-04T01:29:49.541Z,9.53
2023-02-04T01:30:41.908Z,9.60
2023-02-04T01:31:34.184Z,10.38
2023-02-04T01:32:27.406Z,9.68
2023-02-04T01:33:19.030Z,11.04
2023-02-04T01:34:10.713Z,10.96
2023-02-04T01:35:03.356Z,10.83
2023-02-04T01:35:55.000Z,10.41
2023-02-04T01:36:46.460Z,11.01
2023-02-04T01:37:37.905Z,11.10
2023-02-04T01:38:29.574Z,11.73
2023-02-04T01:39:21.122Z,11.46
2023-02-04T01:40:13.262Z,11.41
2023-02-04T01:41:05.654Z,13.12
2023-02-04T01:41:58.034Z,12.61
2023-02-04T01:42:52.928Z,13.80
2023-02-04T01:43:46.935Z,13.02
2023-02-04T01:44:39.549Z,13.04
2023-02-04T01:45:34.690Z,13.54
2023-02-04T01:46:26.715Z,12.74
2023-02-04T01:47:19.449Z,11.45
2023-02-04T01:48:13.157Z,10.50
2023-02-04T01:49:07.717Z,10.63
2023-02-04T01:49:59.944Z,9.53
2023-02-04T01:50:57.044Z,9.59
2023-02-04T01:51:48.805Z,9.96
2023-02-04T01:52:42.461Z,10.81
2023-02-04T01:53:36.107Z,10.94
2023-02-04T01:54:28.683Z,10.32
2023-02-04T01:55:27.457Z,10.96
2023-02-04T01:56:21.952Z,10.22
2023-02-04T01:57:16.223Z,11.75
2023-02-04T01:58:12.185Z,10.43
2023-02-04T01:59:13.325Z,10.62
2023-02-04T02:00:14.355Z,9.37
2023-02-04T02:01:15.559Z,10.74
2023-02-04T02:02:40.977Z,10.14
2023-02-04T02:03:32.739Z,10.52
2023-02-04T02:04:33.512Z,10.57
2023-02-04T02:05:43.685Z,10.36
2023-02-04T02:06:39.569Z,9.94
2023-02-04T02:07:31.260Z,11.12
2023-02-04T02:08:22.827Z,11.36
2023-02-04T02:09:14.402Z,10.40
2023-02-04T02:10:12.200Z,10.33
2023-02-04T02:11:04.615Z,10.11
2023-02-04T02:11:58.336Z,10.11
2023-02-04T02:12:53.374Z,9.94
2023-02-04T02:13:44.967Z,10.30
2023-02-04T02:14:37.875Z,9.67
2023-02-04T02:15:29.357Z,9.99
2023-02-04T02:16:21.226Z,9.38
2023-02-04T02:17:12.742Z,11.33
2023-02-04T02:18:04.779Z,11.22
2023-02-04T02:18:58.570Z,10.81
2023-02-04T02:19:53.522Z,9.22
2023-02-04T02:20:45.329Z,10.39
2023-02-04T02:21:53.195Z,11.00
2023-02-04T02:22:52.615Z,11.09
2023-02-04T02:23:52.524Z,10.33
2023-02-04T02:24:43.956Z,11.22
2023-02-04T02:25:37.286Z,11.86
2023-02-04T02:26:28.835Z,12.15
2023-02-04T02:27:21.912Z,10.69
2023-02-04T02:28:16.948Z,11.84
2023-02-04T02:29:08.431Z,11.56
2023-02-04T02:29:59.951Z,12.82
2023-02-04T02:30:52.870Z,12.26
2023-02-04T02:31:44.657Z,12.23
2023-02-04T02:32:37.518Z,11.83
2023-02-04T02:33:29.148Z,11.81
2023-02-04T02:34:20.834Z,11.19
2023-02-04T02:35:14.439Z,11.59
2023-02-04T02:36:06.668Z,11.78
2023-02-04T02:37:02.961Z,11.53
2023-02-04T02:37:54.492Z,11.10
2023-02-04T02:38:46.117Z,10.54
2023-02-04T02:39:40.737Z,11.55
2023-02-04T02:40:33.023Z,10.38
2023-02-04T02:41:26.426Z,12.02
2023-02-04T02:42:20.841Z,11.70
2023-02-04T02:43:20.196Z,11.46
2023-02-04T02:44:15.748Z,11.56
2023-02-04T02:45:18.364Z,11.69
2023-02-04T02:46:10.264Z,11.28
2023-02-04T02:47:02.262Z,10.50
2023-02-04T02:47:57.890Z,11.11
2023-02-04T02:48:49.672Z,12.93
2023-02-04T02:49:42.960Z,11.60
2023-02-04T02:50:34.588Z,11.50
2023-02-04T02:51:26.485Z,11.20
2023-02-04T02:52:18.719Z,12.10
2023-02-04T02:53:13.235Z,11.11
2023-02-04T02:54:05.605Z,12.49
2023-02-04T02:54:57.344Z,13.19
2023-02-04T02:55:49.114Z,12.10
2023-02-04T02:56:44.817Z,10.94
2023-02-04T02:57:37.038Z,11.25
2023-02-04T02:58:33.202Z,11.11
2023-02-04T02:59:26.303Z,12.13
2023-02-04T03:00:26.798Z,11.18
2023-02-04T03:01:21.084Z,12.27
2023-02-04T03:02:21.944Z,12.07
2023-02-04T03:03:23.466Z,11.74
2023-02-04T03:04:18.557Z,11.46
2023-02-04T03:05:12.441Z,11.36
2023-02-04T03:06:12.290Z,12.58
2023-02-04T03:07:04.263Z,11.95
2023-02-04T03:07:55.990Z,10.58
2023-02-04T03:08:55.067Z,11.01
2023-02-04T03:09:46.971Z,11.34
2023-02-04T03:10:39.194Z,10.68
2023-02-04T03:11:32.941Z,10.36
2023-02-04T03:12:24.785Z,11.00
2023-02-04T03:13:18.239Z,11.33
2023-02-04T03:14:09.945Z,12.13
2023-02-04T03:15:03.539Z,11.93
2023-02-04T03:15:55.940Z,11.78
2023-02-04T03:16:48.306Z,10.74
2023-02-04T03:17:41.170Z,10.47
2023-02-04T03:18:32.850Z,11.41
2023-02-04T03:19:28.247Z,10.68
2023-02-04T03:20:20.136Z,9.95
2023-02-04T03:21:11.688Z,11.02
2023-02-04T03:22:05.523Z,10.94
2023-02-04T03:22:58.252Z,10.83
2023-02-04T03:23:50.219Z,11.31
2023-02-04T03:24:41.793Z,10.72
2023-02-04T03:25:34.276Z,10.48
2023-02-04T03:26:27.285Z,10.23
2023-02-04T03:27:18.947Z,10.31
2023-02-04T03:28:10.818Z,10.13
2023-02-04T03:29:02.472Z,10.63
2023-02-04T03:29:53.988Z,10.62
2023-02-04T03:30:56.300Z,11.23
2023-02-04T03:31:48.343Z,10.21
2023-02-04T03:32:41.878Z,10.78
2023-02-04T03:33:35.795Z,10.19
2023-02-04T03:34:27.604Z,9.26
2023-02-04T03:35:20.038Z,9.62
2023-02-04T03:36:11.818Z,10.80
2023-02-04T03:37:03.349Z,9.91
2023-02-04T03:37:55.238Z,10.06
2023-02-04T03:38:46.734Z,11.04
2023-02-04T03:39:38.372Z,10.66
2023-02-04T03:40:30.232Z,9.40
2023-02-04T03:41:23.222Z,10.42
2023-02-04T03:42:14.851Z,11.56
2023-02-04T03:43:06.468Z,11.25
2023-02-04T03:43:58.179Z,9.62
2023-02-04T03:44:49.719Z,10.67
2023-02-04T03:45:45.477Z,10.55
2023-02-04T03:46:37.520Z,8.95
2023-02-04T03:47:28.986Z,8.06
2023-02-04T03:48:20.629Z,9.84
2023-02-04T03:49:12.179Z,8.86
2023-02-04T03:50:04.939Z,9.62
2023-02-04T03:50:56.491Z,9.66
2023-02-04T03:51:47.924Z,9.23
2023-02-04T03:52:40.132Z,9.98
2023-02-04T03:53:31.605Z,9.95
2023-02-04T03:54:23.333Z,10.17
2023-02-04T03:55:14.822Z,10.79
2023-02-04T03:56:06.817Z,10.47
2023-02-04T03:56:58.374Z,9.49
2023-02-04T03:57:49.847Z,10.90
2023-02-04T03:58:41.524Z,10.66
2023-02-04T03:59:33.114Z,10.57
2023-02-04T04:00:24.900Z,10.61
2023-02-04T04:01:16.650Z,10.51
2023-02-04T04:02:08.256Z,10.44
2023-02-04T04:03:00.099Z,10.93
2023-02-04T04:03:51.590Z,11.10
2023-02-04T04:04:43.263Z,10.15
2023-02-04T04:05:34.746Z,8.56
2023-02-04T04:06:26.194Z,9.76
2023-02-04T04:07:17.722Z,9.54
2023-02-04T04:08:09.161Z,9.71
2023-02-04T04:09:00.675Z,8.95
2023-02-04T04:09:52.453Z,8.70
2023-02-04T04:10:44.130Z,8.40
2023-02-04T04:11:35.838Z,8.72
2023-02-04T04:12:27.599Z,10.35
2023-02-04T04:13:19.155Z,10.23
2023-02-04T04:14:10.838Z,10.06
2023-02-04T04:15:02.476Z,9.01
2023-02-04T04:15:54.012Z,8.02
2023-02-04T04:16:45.591Z,10.10
2023-02-04T04:17:37.020Z,10.28
2023-02-04T04:18:28.505Z,10.63
2023-02-04T04:19:19.943Z,10.63
2023-02-04T04:20:12.404Z,11.19
2023-02-04T04:21:04.064Z,10.92
2023-02-04T04:21:55.476Z,11.13
2023-02-04T04:22:47.117Z,11.28
2023-02-04T04:23:38.567Z,10.14
2023-02-04T04:24:30.244Z,10.58
2023-02-04T04:25:21.710Z,10.44
2023-02-04T04:26:13.702Z,10.22
2023-02-04T04:27:05.136Z,10.55
2023-02-04T04:27:56.599Z,10.07
2023-02-04T04:28:48.437Z,11.16
2023-02-04T04:29:39.908Z,10.22
2023-02-04T04:30:31.621Z,9.77
2023-02-04T04:31:23.385Z,10.61
2023-02-04T04:32:14.890Z,11.55
2023-02-04T04:33:06.839Z,12.07
2023-02-04T04:33:58.468Z,11.18
2023-02-04T04:34:49.942Z,10.97
2023-02-04T04:35:43.013Z,10.61
2023-02-04T04:36:34.511Z,10.34
2023-02-04T04:37:26.130Z,11.05
2023-02-04T04:38:17.579Z,10.91
2023-02-04T04:39:09.208Z,11.03
2023-02-04T04:40:02.654Z,11.13
2023-02-04T04:40:54.218Z,11.36
2023-02-04T04:41:45.906Z,10.65
2023-02-04T04:42:37.372Z,11.09
2023-02-04T04:43:28.810Z,10.58
2023-02-04T04:44:20.633Z,11.22
2023-02-04T04:45:14.478Z,10.13
2023-02-04T04:46:06.057Z,10.79
2023-02-04T04:46:57.569Z,11.59
2023-02-04T04:47:49.800Z,10.29
2023-02-04T04:48:41.265Z,9.10
2023-02-04T04:49:32.818Z,10.41
2023-02-04T04:50:24.314Z,9.86
2023-02-04T04:51:16.035Z,9.55
2023-02-04T04:52:07.445Z,9.57
2023-02-04T04:52:59.037Z,9.83
2023-02-04T04:53:50.782Z,9.80
2023-02-04T04:54:42.564Z,9.30
2023-02-04T04:55:34.089Z,9.61
2023-02-04T04:56:26.069Z,9.27
2023-02-04T04:57:17.564Z,10.33
2023-02-04T04:58:09.228Z,9.34
2023-02-04T04:59:00.712Z,10.49
2023-02-04T04:59:52.225Z,11.13
2023-02-04T05:00:43.770Z,11.04
2023-02-04T05:01:35.636Z,10.04
2023-02-04T05:02:30.116Z,10.49
2023-02-04T05:03:21.791Z,11.22
2023-02-04T05:04:13.527Z,11.86
2023-02-04T05:05:05.578Z,10.86
2023-02-04T05:05:57.266Z,10.96
2023-02-04T05:06:48.696Z,11.00
2023-02-04T05:07:41.164Z,10.25
2023-02-04T05:08:34.107Z,10.55
2023-02-04T05:09:25.953Z,10.23
2023-02-04T05:10:17.656Z,9.16
2023-02-04T05:11:09.308Z,9.63
2023-02-04T05:12:02.931Z,9.45
2023-02-04T05:12:54.609Z,10.51
2023-02-04T05:13:46.531Z,10.93
2023-02-04T05:14:37.957Z,10.09
2023-02-04T05:15:30.334Z,10.41
2023-02-04T05:16:21.787Z,10.20
2023-02-04T05:17:29.045Z,10.72
2023-02-04T05:18:20.489Z,11.14
2023-02-04T05:19:12.031Z,10.99
2023-02-04T05:20:04.097Z,10.83
2023-02-04T05:20:55.621Z,11.01
2023-02-04T05:21:47.299Z,11.20
2023-02-04T05:22:39.094Z,11.95
2023-02-04T05:23:30.775Z,11.87
2023-02-04T05:24:22.195Z,10.66
2023-02-04T05:25:13.911Z,11.96
2023-02-04T05:26:05.745Z,12.39
2023-02-04T05:26:57.964Z,11.38
2023-02-04T05:27:49.443Z,9.70
2023-02-04T05:28:40.863Z,10.01
2023-02-04T05:29:32.351Z,9.76
2023-02-04T05:30:23.873Z,10.07
2023-02-04T05:31:15.583Z,10.50
2023-02-04T05:32:08.370Z,11.48
2023-02-04T05:33:00.052Z,10.94
2023-02-04T05:33:51.662Z,9.82
2023-02-04T05:34:43.184Z,10.50
2023-02-04T05:35:34.590Z,10.83
2023-02-04T05:36:25.992Z,9.20
2023-02-04T05:37:18.963Z,9.04
2023-02-04T05:38:10.612Z,9.11
2023-02-04T05:39:02.083Z,9.66
2023-02-04T05:39:53.624Z,10.61
2023-02-04T05:40:47.390Z,10.27
2023-02-04T05:41:39.524Z,9.81
2023-02-04T05:42:30.977Z,10.74
2023-02-04T05:43:22.388Z,11.19
2023-02-04T05:44:13.915Z,11.00
2023-02-04T05:45:05.940Z,10.76
2023-02-04T05:45:58.145Z,11.23
2023-02-04T05:46:49.560Z,10.34
2023-02-04T05:47:41.087Z,10.51
2023-02-04T05:48:32.845Z,11.07
2023-02-04T05:49:24.944Z,10.87
2023-02-04T05:50:16.743Z,10.32
2023-02-04T05:51:08.233Z,10.32
2023-02-04T05:51:59.958Z,9.95
2023-02-04T05:52:51.776Z,9.54
2023-02-04T05:53:43.421Z,9.92
2023-02-04T05:54:34.867Z,9.82
2023-02-04T05:55:26.543Z,9.33
2023-02-04T05:56:18.070Z,9.46
2023-02-04T05:57:09.504Z,9.70
2023-02-04T05:58:01.413Z,9.35
2023-02-04T05:58:52.827Z,10.57
2023-02-04T05:59:44.557Z,9.53
2023-02-04T06:00:35.979Z,8.62
2023-02-04T06:01:27.558Z,8.93
2023-02-04T06:02:19.775Z,9.05
2023-02-04T06:03:11.307Z,8.49
2023-02-04T06:04:03.010Z,8.26
2023-02-04T06:04:54.652Z,7.94
2023-02-04T06:05:46.448Z,7.94
2023-02-04T06:06:37.866Z,7.84
2023-02-04T06:07:29.441Z,8.27
2023-02-04T06:08:21.184Z,7.26
2023-02-04T06:09:12.791Z,8.14
2023-02-04T06:10:04.557Z,8.77
2023-02-04T06:10:55.992Z,7.95
2023-02-04T06:11:47.399Z,8.08
2023-02-04T06:12:39.114Z,8.21
2023-02-04T06:13:30.790Z,8.41
2023-02-04T06:14:22.215Z,9.93
2023-02-04T06:15:14.347Z,10.57
2023-02-04T06:16:06.082Z,10.31
2023-02-04T06:16:59.933Z,8.90
2023-02-04T06:17:53.133Z,10.81
2023-02-04T06:18:44.702Z,11.39
2023-02-04T06:19:36.255Z,11.44
2023-02-04T06:20:28.271Z,10.19
2023-02-04T06:21:19.774Z,10.69
2023-02-04T06:22:11.214Z,10.15
2023-02-04T06:23:02.722Z,9.70
2023-02-04T06:23:54.531Z,10.49
2023-02-04T06:24:47.479Z,10.27
2023-02-04T06:25:39.323Z,10.77
2023-02-04T06:26:30.974Z,10.80
2023-02-04T06:27:25.344Z,10.39
2023-02-04T06:28:16.857Z,10.27
2023-02-04T06:29:08.737Z,8.90
2023-02-04T06:30:00.154Z,8.87
2023-02-04T06:30:51.905Z,8.97
2023-02-04T06:31:44.519Z,8.48
2023-02-04T06:32:36.136Z,8.51
2023-02-04T06:33:27.598Z,9.75
2023-02-04T06:34:19.453Z,10.61
2023-02-04T06:35:12.971Z,9.76
2023-02-04T06:36:05.021Z,10.24
2023-02-04T06:36:56.509Z,10.45
2023-02-04T06:37:48.894Z,9.57
2023-02-04T06:38:41.494Z,10.30
2023-02-04T06:39:33.087Z,9.95
2023-02-04T06:40:24.584Z,10.18
2023-02-04T06:41:17.084Z,9.91
2023-02-04T06:42:10.716Z,9.31
2023-02-04T06:43:04.314Z,10.40
2023-02-04T06:43:55.994Z,9.89
2023-02-04T06:44:47.407Z,9.86
2023-02-04T06:45:38.905Z,9.29
2023-02-04T06:46:31.593Z,9.30
2023-02-04T06:47:23.069Z,10.79
2023-02-04T06:48:14.491Z,9.90
2023-02-04T06:49:05.896Z,9.77
2023-02-04T06:49:57.391Z,10.18
2023-02-04T06:50:49.009Z,10.09
2023-02-04T06:51:40.713Z,10.02
2023-02-04T06:52:33.634Z,9.72
2023-02-04T06:53:25.369Z,10.86
2023-02-04T06:54:18.487Z,11.65
2023-02-04T06:55:09.954Z,11.45
2023-02-04T06:56:01.747Z,11.27
2023-02-04T06:56:53.436Z,10.59
2023-02-04T06:57:44.869Z,11.18
2023-02-04T06:58:36.462Z,11.33
2023-02-04T06:59:32.351Z,10.82
2023-02-04T07:00:23.988Z,12.00
2023-02-04T07:01:15.474Z,12.89
2023-02-04T07:02:08.576Z,12.57
2023-02-04T07:03:00.028Z,12.26
2023-02-04T07:03:51.519Z,11.32
2023-02-04T07:04:47.685Z,10.44
2023-02-04T07:05:39.547Z,10.88
2023-02-04T07:06:32.013Z,11.11
2023-02-04T07:07:23.440Z,12.09
2023-02-04T07:08:15.054Z,11.54
2023-02-04T07:09:06.642Z,11.70
2023-02-04T07:09:58.103Z,11.43
2023-02-04T07:10:49.524Z,11.39
2023-02-04T07:11:41.179Z,12.76
2023-02-04T07:12:32.763Z,12.88
2023-02-04T07:13:24.675Z,11.15
2023-02-04T07:14:16.175Z,11.47
2023-02-04T07:15:07.976Z,12.92
2023-02-04T07:15:59.504Z,13.38
2023-02-04T07:16:50.982Z,13.10
2023-02-04T07:17:42.415Z,13.27
2023-02-04T07:18:33.910Z,12.10
2023-02-04T07:19:25.753Z,11.50
2023-02-04T07:20:17.660Z,10.68
2023-02-04T07:21:09.095Z,11.02
2023-02-04T07:22:00.641Z,10.30
2023-02-04T07:22:52.067Z,10.56
2023-02-04T07:23:43.484Z,11.45
2023-02-04T07:24:35.035Z,10.53
2023-02-04T07:25:26.527Z,11.03
2023-02-04T07:26:18.270Z,11.66
2023-02-04T07:27:09.761Z,10.85
2023-02-04T07:28:03.816Z,11.42
2023-02-04T07:28:55.701Z,10.23
2023-02-04T07:29:47.098Z,9.64
2023-02-04T07:30:38.616Z,10.09
2023-02-04T07:31:30.313Z,10.27
2023-02-04T07:32:21.761Z,11.06
2023-02-04T07:33:13.233Z,9.95
2023-02-04T07:34:04.854Z,9.95
2023-02-04T07:34:56.327Z,9.93
2023-02-04T07:35:47.843Z,10.51
2023-02-04T07:36:39.695Z,10.92
2023-02-04T07:37:31.386Z,9.68
2023-02-04T07:38:22.845Z,11.03
2023-02-04T07:39:14.383Z,11.17
2023-02-04T07:40:06.293Z,10.43
2023-02-04T07:40:57.718Z,11.09
2023-02-04T07:41:49.223Z,10.09
2023-02-04T07:42:46.717Z,9.74
2023-02-04T07:43:42.647Z,9.95
2023-02-04T07:44:34.126Z,10.51
2023-02-04T07:45:25.820Z,10.96
2023-02-04T07:46:17.286Z,10.39
2023-02-04T07:47:09.894Z,9.27
2023-02-04T07:48:01.577Z,9.06
2023-02-04T07:48:53.264Z,10.49
2023-02-04T07:49:44.791Z,10.19
2023-02-04T07:50:37.077Z,9.78
2023-02-04T07:51:28.465Z,10.55
2023-02-04T07:52:19.933Z,12.09
2023-02-04T07:53:11.498Z,11.93
2023-02-04T07:54:02.987Z,10.58
2023-02-04T07:54:54.422Z,10.74
2023-02-04T07:55:45.891Z,10.61
2023-02-04T07:56:37.694Z,11.18
2023-02-04T07:57:30.001Z,11.17
2023-02-04T07:58:22.721Z,10.72
2023-02-04T07:59:14.425Z,11.10
2023-02-04T08:00:06.627Z,11.36
2023-02-04T08:01:05.485Z,11.76
2023-02-04T08:01:57.202Z,10.88
2023-02-04T08:02:48.695Z,10.63
2023-02-04T08:03:41.806Z,10.17
2023-02-04T08:04:33.394Z,10.54
2023-02-04T08:05:25.208Z,11.63
2023-02-04T08:06:16.664Z,11.83
2023-02-04T08:07:08.419Z,11.35
2023-02-04T08:08:01.872Z,9.84
2023-02-04T08:08:53.319Z,10.04
2023-02-04T08:09:44.871Z,10.65
2023-02-04T08:10:36.303Z,10.44
2023-02-04T08:11:27.689Z,10.34
2023-02-04T08:12:19.374Z,10.24
2023-02-04T08:13:10.988Z,9.83
2023-02-04T08:14:02.515Z,9.70
2023-02-04T08:14:54.171Z,10.24
2023-02-04T08:15:45.834Z,10.19
2023-02-04T08:16:37.509Z,11.14
2023-02-04T08:17:29.674Z,11.66
2023-02-04T08:18:21.082Z,11.66
2023-02-04T08:19:19.027Z,11.51
2023-02-04T08:20:11.548Z,11.04
2023-02-04T08:21:04.734Z,12.27
2023-02-04T08:21:56.158Z,12.92
2023-02-04T08:22:47.835Z,13.01
2023-02-04T08:23:41.712Z,12.18
2023-02-04T08:24:33.182Z,12.74
2023-02-04T08:25:24.833Z,11.86
2023-02-04T08:26:16.256Z,11.05
2023-02-04T08:27:07.781Z,11.13
2023-02-04T08:27:59.494Z,10.84
2023-02-04T08:28:51.097Z,11.03
2023-02-04T08:29:42.768Z,10.66
2023-02-04T08:30:34.504Z,10.35
2023-02-04T08:31:26.223Z,9.73
2023-02-04T08:32:17.780Z,10.38
2023-02-04T08:33:09.340Z,10.30
2023-02-04T08:34:00.744Z,11.06
2023-02-04T08:34:52.406Z,10.08
2023-02-04T08:35:43.926Z,9.81
2023-02-04T08:36:35.594Z,9.47
2023-02-04T08:37:27.186Z,9.40
2023-02-04T08:38:18.614Z,8.47
2023-02-04T08:39:10.915Z,7.52
2023-02-04T08:40:03.041Z,9.20
2023-02-04T08:40:54.495Z,9.81
2023-02-04T08:41:46.221Z,9.89
2023-02-04T08:42:37.687Z,10.10
2023-02-04T08:43:29.177Z,10.11
2023-02-04T08:44:20.921Z,11.14
2023-02-04T08:45:12.354Z,11.67
2023-02-04T08:46:03.927Z,11.21
2023-02-04T08:46:55.558Z,10.77
2023-02-04T08:47:47.064Z,10.00
2023-02-04T08:48:38.507Z,11.01
2023-02-04T08:49:30.026Z,10.96
2023-02-04T08:50:21.681Z,11.80
2023-02-04T08:51:13.182Z,11.97
2023-02-04T08:52:06.050Z,13.74
2023-02-04T08:52:57.471Z,10.61
2023-02-04T08:53:48.908Z,11.92
2023-02-04T08:54:40.459Z,10.88
2023-02-04T08:55:32.075Z,10.97
2023-02-04T08:56:23.839Z,10.41
2023-02-04T08:57:15.337Z,11.27
2023-02-04T08:58:06.844Z,11.68
2023-02-04T08:58:58.318Z,10.04
2023-02-04T08:59:49.805Z,10.58
2023-02-04T09:00:41.529Z,11.26
2023-02-04T09:01:33.091Z,11.58
2023-02-04T09:02:25.710Z,11.46
2023-02-04T09:03:17.109Z,13.03
2023-02-04T09:04:08.919Z,10.71
2023-02-04T09:05:00.524Z,9.58
2023-02-04T09:05:51.988Z,9.97
2023-02-04T09:06:43.645Z,9.18
2023-02-04T09:07:35.067Z,10.38
2023-02-04T09:08:26.458Z,10.71
2023-02-04T09:09:17.893Z,10.96
2023-02-04T09:10:09.914Z,11.64
2023-02-04T09:11:01.918Z,10.92
2023-02-04T09:11:53.354Z,11.04
2023-02-04T09:12:45.248Z,11.55
2023-02-04T09:13:36.851Z,12.48
2023-02-04T09:14:28.794Z,11.83
2023-02-04T09:15:20.236Z,9.79
2023-02-04T09:16:12.295Z,11.20
2023-02-04T09:17:05.999Z,10.42
2023-02-04T09:18:04.611Z,9.35
2023-02-04T09:18:56.553Z,10.89
2023-02-04T09:19:48.118Z,9.80
2023-02-04T09:20:39.516Z,9.64
2023-02-04T09:21:31.701Z,10.03
2023-02-04T09:22:23.135Z,10.21
2023-02-04T09:23:15.643Z,10.26
2023-02-04T09:24:07.339Z,10.34
2023-02-04T09:24:58.955Z,12.14
2023-02-04T09:25:50.836Z,12.02
2023-02-04T09:26:42.262Z,10.09
2023-02-04T09:27:33.783Z,10.41
2023-02-04T09:28:25.448Z,12.04
2023-02-04T09:29:16.999Z,13.83
2023-02-04T09:30:08.907Z,12.08
2023-02-04T09:31:00.721Z,11.25
2023-02-04T09:31:52.600Z,11.07
2023-02-04T09:32:44.025Z,11.65
2023-02-04T09:33:36.166Z,10.91
2023-02-04T09:34:27.928Z,10.58
2023-02-04T09:35:19.343Z,10.77
2023-02-04T09:36:10.995Z,10.74
2023-02-04T09:37:02.704Z,10.64
2023-02-04T09:37:56.559Z,10.11
2023-02-04T09:38:48.032Z,10.94
2023-02-04T09:39:39.567Z,11.87
2023-02-04T09:40:36.583Z,13.07
2023-02-04T09:41:28.327Z,12.83
2023-02-04T09:42:25.267Z,11.46
2023-02-04T09:43:25.587Z,11.86
2023-02-04T09:44:21.882Z,12.30
2023-02-04T09:45:28.444Z,11.19
2023-02-04T09:46:23.852Z,11.49
2023-02-04T09:47:25.233Z,11.91
2023-02-04T09:48:17.446Z,11.70
2023-02-04T09:49:11.287Z,11.33
2023-02-04T09:50:03.015Z,11.62
2023-02-04T09:51:07.870Z,11.66
2023-02-04T09:51:59.769Z,13.28
2023-02-04T09:52:55.757Z,12.09
2023-02-04T09:53:49.600Z,12.04
2023-02-04T09:54:41.356Z,12.41
2023-02-04T09:55:37.331Z,13.22
2023-02-04T09:56:29.030Z,11.86
2023-02-04T09:57:21.512Z,11.23
2023-02-04T09:58:22.087Z,12.91
2023-02-04T09:59:23.450Z,13.51
2023-02-04T10:00:28.081Z,12.56
2023-02-04T10:01:21.451Z,12.83
2023-02-04T10:02:26.435Z,12.83
2023-02-04T10:03:21.988Z,13.11
2023-02-04T10:04:15.463Z,12.77
2023-02-04T10:05:14.376Z,12.50
2023-02-04T10:06:08.612Z,12.61
2023-02-04T10:07:00.471Z,13.20
2023-02-04T10:07:52.256Z,13.11
2023-02-04T10:08:47.932Z,13.52
2023-02-04T10:09:40.595Z,12.86
2023-02-04T10:10:32.853Z,12.44
2023-02-04T10:11:27.529Z,13.38
2023-02-04T10:12:20.522Z,12.87
2023-02-04T10:13:23.645Z,12.67
2023-02-04T10:14:19.818Z,11.98
2023-02-04T10:15:19.299Z,12.97
2023-02-04T10:16:23.802Z,13.02
2023-02-04T10:17:21.906Z,12.36
2023-02-04T10:18:26.832Z,13.59
2023-02-04T10:19:18.423Z,13.76
2023-02-04T10:20:15.736Z,13.56
2023-02-04T10:21:21.087Z,13.66
2023-02-04T10:22:22.235Z,14.04
2023-02-04T10:23:13.766Z,14.14
2023-02-04T10:24:15.946Z,14.17
2023-02-04T10:25:20.578Z,14.21
2023-02-04T10:26:14.236Z,14.48
2023-02-04T10:27:11.225Z,14.32
2023-02-04T10:28:02.705Z,13.77
2023-02-04T10:29:14.407Z,15.35
2023-02-04T10:30:06.433Z,14.60
2023-02-04T10:30:58.430Z,13.90
2023-02-04T10:31:52.070Z,14.12
2023-02-04T10:32:43.709Z,13.25
2023-02-04T10:33:37.488Z,13.20
2023-02-04T10:34:39.692Z,12.94
2023-02-04T10:35:31.155Z,13.86
2023-02-04T10:36:22.757Z,14.54
2023-02-04T10:37:22.056Z,13.40
2023-02-04T10:38:13.823Z,12.65
2023-02-04T10:39:11.615Z,12.77
2023-02-04T10:40:03.435Z,12.85
2023-02-04T10:41:05.854Z,12.45
2023-02-04T10:42:00.650Z,12.96
2023-02-04T10:42:53.109Z,14.32
2023-02-04T10:43:44.848Z,14.79
2023-02-04T10:44:36.294Z,13.82
2023-02-04T10:45:30.279Z,13.79
2023-02-04T10:46:21.787Z,13.03
2023-02-04T10:47:22.505Z,12.61
2023-02-04T10:48:18.932Z,12.99
2023-02-04T10:49:23.029Z,13.89
2023-02-04T10:50:25.781Z,14.66
2023-02-04T10:51:17.251Z,16.55
2023-02-04T10:52:18.067Z,16.12
2023-02-04T10:53:31.213Z,15.17
2023-02-04T10:54:35.291Z,14.44
2023-02-04T10:55:26.965Z,14.28
2023-02-04T10:56:21.674Z,13.93
2023-02-04T10:57:28.238Z,13.55
2023-02-04T10:58:27.199Z,14.13
2023-02-04T10:59:26.802Z,12.24
2023-02-04T11:00:30.129Z,14.11
2023-02-04T11:01:21.763Z,15.20
2023-02-04T11:02:34.723Z,14.48
2023-02-04T11:03:30.667Z,15.17
2023-02-04T11:04:22.427Z,15.68
2023-02-04T11:05:17.860Z,14.42
2023-02-04T11:06:13.247Z,14.31
2023-02-04T11:07:04.643Z,15.10
2023-02-04T11:07:56.721Z,15.23
2023-02-04T11:08:51.407Z,13.68
2023-02-04T11:09:43.991Z,13.07
2023-02-04T11:10:36.120Z,13.72
2023-02-04T11:11:27.723Z,13.22
2023-02-04T11:12:22.197Z,13.76
2023-02-04T11:13:26.605Z,14.91
2023-02-04T11:14:28.489Z,13.95
2023-02-04T11:15:50.745Z,14.31
2023-02-04T11:16:49.377Z,15.05
2023-02-04T11:17:41.157Z,14.29
2023-02-04T11:18:48.146Z,13.19
2023-02-04T11:19:39.850Z,13.08
2023-02-04T11:20:33.466Z,13.43
2023-02-04T11:21:29.643Z,14.75
2023-02-04T11:22:42.504Z,13.30
2023-02-04T11:23:36.879Z,13.12
2023-02-04T11:24:33.914Z,12.77
2023-02-04T11:25:38.211Z,12.83
2023-02-04T11:26:37.988Z,12.55
2023-02-04T11:27:40.399Z,13.06
2023-02-04T11:28:39.910Z,13.99
2023-02-04T11:29:41.759Z,13.63